Terminal Aerodrome Forecast
Issued by NWS Shreveport, LA

Home | Current Version | Previous Version | Text Only | Print | Product List | Glossary On
Versions: 1 2 3 4 5 6 7 8 9 10 11 12 13 14
000
FTUS44 KSHV 251150
TAFMLU
TAF
KMLU 251150Z 2512/2612 19006KT P6SM OVC009
     FM251400 17008KT P6SM BKN015 OVC025
     FM251800 18012G18KT P6SM BKN035 OVC060
     FM260000 17013G20KT P6SM VCTS BKN040CB OVC060
     FM260300 16010KT 4SM TSRA BR OVC035CB
     FM261000 17008KT 5SM -SHRA VCTS OVC020CB=

USA.gov is the U.S. government's official web portal to all federal, state and local government web resources and services.